Itapejara d'Oeste, Brazil
Current Conditions -  °F | °C
As of 5:00 AM on Tuesday 21 Oct 2014 (Local Time) from SBCA Reporting Station
Clear Clear  
Wind Chill: 63°   Ceiling: Unl
Heat Index: 63°   Visibility: 6mi
Dew Point: 59°   Wind: 3mph
Humidity: 88%   Direction: 160°SSE
Pressure: 30.06"   Gusts: NA
Location:  25.97°S, 52.82°W
Report Text: SBCA 210700Z 16003KT CAVOK 17/15 Q1018
Loading
Personal Weather Stations






























Interactive Weather Map
Tropical Storm Tracking
New forecast layout! Learn more

10-Day Weather Forecast

Advertisements
Track Severe Weather on mobile